Time;durP1;ratioP1;P1;durP2;ratioP2;P2;SDS_P1;SDS_P2;PMS_P1;PMS_P2;Temp;Humidity;BMP_temperature;BMP_pressure;BME280_temperature;BME280_humidity;BME280_pressure;Samples;Min_cycle;Max_cycle;Signal;HPM_P1;HPM_P2
2021/12/17 00:00:16;;;;;;;4.57;0.90;;;8.40;99.90;;;;;;4971761;28;20051;-92
2021/12/17 00:05:32;;;;;;;1.50;0.68;;;7.90;99.90;;;;;;4974892;28;20114;-91
2021/12/17 00:07:58;;;;;;;1.27;0.52;;;7.90;99.90;;;;;;4973356;28;20119;-92
2021/12/17 00:10:23;;;;;;;1.48;0.70;;;7.90;99.90;;;;;;4975184;28;20063;-91
2021/12/17 00:12:51;;;;;;;1.38;0.60;;;7.90;99.90;;;;;;4955727;28;20496;-87
2021/12/17 00:15:17;;;;;;;1.48;0.70;;;7.90;99.90;;;;;;4976741;28;20054;-91
2021/12/17 00:17:54;;;;;;;2.35;1.00;;;7.90;99.90;;;;;;4976512;28;20461;-91
2021/12/17 00:20:45;;;;;;;1.70;0.70;;;7.90;99.90;;;;;;4954037;29;20455;-91
2021/12/17 00:50:39;;;;;;;1.63;0.68;;;7.50;99.90;;;;;;5052531;28;20063;-91
2021/12/17 00:53:06;;;;;;;1.75;0.70;;;7.50;99.90;;;;;;5075699;28;20049;-93
2021/12/17 00:55:32;;;;;;;1.95;0.85;;;7.80;99.90;;;;;;5066088;28;20393;-91
2021/12/17 00:57:58;;;;;;;1.40;0.70;;;7.40;99.90;;;;;;5066759;28;20047;-87
2021/12/17 01:00:24;;;;;;;2.28;1.08;;;7.30;99.90;;;;;;5043923;28;20122;-92
2021/12/17 01:02:50;;;;;;;1.35;0.60;;;7.30;99.90;;;;;;5070033;28;20102;-92
2021/12/17 01:05:24;;;;;;;1.67;0.60;;;7.30;99.90;;;;;;5052047;28;20477;-89
2021/12/17 01:07:53;;;;;;;1.77;0.60;;;7.30;99.90;;;;;;5047780;28;20049;-92
2021/12/17 01:10:34;;;;;;;1.48;0.70;;;7.50;99.90;;;;;;5066920;28;20052;-92
2021/12/17 01:13:00;;;;;;;1.42;0.80;;;7.30;99.90;;;;;;5063603;28;20041;-92
2021/12/17 01:15:27;;;;;;;1.63;1.00;;;7.20;99.90;;;;;;5064824;28;20061;-92
2021/12/17 01:18:01;;;;;;;1.40;0.70;;;7.20;99.90;;;;;;5066749;28;20518;-92
2021/12/17 01:23:47;;;;;;;1.20;0.60;;;7.20;99.90;;;;;;5051398;28;20495;-92
2021/12/17 01:42:14;;;;;;;1.38;0.57;;;7.30;99.90;;;;;;4973375;28;20054;-91
2021/12/17 01:44:41;;;;;;;0.73;0.40;;;7.30;99.90;;;;;;4973657;28;20070;-91
2021/12/17 01:47:10;;;;;;;1.10;0.57;;;7.30;99.90;;;;;;4983602;28;20490;-90
2021/12/17 02:00:15;;;;;;;0.80;0.50;;;7.30;99.90;;;;;;4980634;28;20510;-91
2021/12/17 02:02:45;;;;;;;0.82;0.50;;;7.30;99.90;;;;;;4964870;28;20047;-90
2021/12/17 02:05:13;;;;;;;1.08;0.50;;;7.30;99.90;;;;;;4964854;28;20169;-91
2021/12/17 02:07:39;;;;;;;1.20;0.52;;;7.70;99.90;;;;;;4981027;28;20047;-92
2021/12/17 02:28:57;;;;;;;1.63;0.70;;;7.90;99.90;;;;;;5038563;28;20088;-91
2021/12/17 02:31:33;;;;;;;1.35;0.60;;;7.40;99.90;;;;;;5044571;28;20405;-86
2021/12/17 02:36:44;;;;;;;1.52;0.57;;;7.40;99.90;;;;;;5026230;28;20057;-90
2021/12/17 02:47:23;;;;;;;1.75;0.90;;;7.40;99.90;;;;;;5061808;28;20466;-90
2021/12/17 02:49:48;;;;;;;1.10;0.70;;;7.40;99.90;;;;;;5064017;28;20083;-90
2021/12/17 02:52:16;;;;;;;1.25;0.70;;;7.50;99.90;;;;;;5065001;28;20044;-91
2021/12/17 02:54:42;;;;;;;1.55;0.75;;;7.40;99.90;;;;;;5064275;28;20056;-91
2021/12/17 02:57:09;;;;;;;1.42;0.80;;;7.50;99.90;;;;;;5061269;28;20064;-91
2021/12/17 02:59:36;;;;;;;1.20;0.65;;;7.40;99.90;;;;;;5061390;28;20045;-84
2021/12/17 03:02:10;;;;;;;1.52;0.70;;;7.40;99.90;;;;;;5051139;28;20091;-88
2021/12/17 03:04:40;;;;;;;1.10;0.68;;;7.50;99.90;;;;;;5060226;28;20049;-88
2021/12/17 03:07:09;;;;;;;1.95;1.08;;;7.50;99.90;;;;;;5061330;28;20048;-90
2021/12/17 03:09:52;;;;;;;1.50;0.68;;;7.50;99.90;;;;;;5064632;28;20066;-92
2021/12/17 03:12:29;;;;;;;0.85;0.60;;;7.90;99.90;;;;;;5057920;28;20098;-89
2021/12/17 03:25:49;;;;;;;1.33;0.70;;;7.50;99.90;;;;;;5068440;28;20467;-89
2021/12/17 03:28:15;;;;;;;1.25;0.70;;;7.70;99.90;;;;;;5060924;28;20130;-89
2021/12/17 03:30:40;;;;;;;1.45;0.70;;;7.60;99.90;;;;;;5049682;28;20049;-90
2021/12/17 03:33:06;;;;;;;1.65;0.70;;;7.50;99.90;;;;;;5062296;28;20120;-92
2021/12/17 03:35:32;;;;;;;2.13;0.90;;;7.60;99.90;;;;;;5060512;28;20124;-89
2021/12/17 03:37:57;;;;;;;1.85;0.88;;;7.70;99.90;;;;;;5061580;28;20060;-90
2021/12/17 03:40:23;;;;;;;1.25;0.85;;;7.60;99.90;;;;;;5066734;28;20408;-91
2021/12/17 03:42:51;;;;;;;1.60;0.95;;;7.60;99.90;;;;;;5064373;28;20052;-91
2021/12/17 03:45:20;;;;;;;1.50;1.02;;;7.60;99.90;;;;;;5041904;28;20053;-90
2021/12/17 03:47:46;;;;;;;1.10;0.60;;;7.60;99.90;;;;;;5038651;28;20436;-88
2021/12/17 03:50:13;;;;;;;0.98;0.60;;;7.60;99.90;;;;;;5053657;28;20086;-91
2021/12/17 03:52:38;;;;;;;1.10;0.70;;;7.60;99.90;;;;;;5072304;28;20515;-86
2021/12/17 03:55:04;;;;;;;1.55;0.80;;;8.00;99.90;;;;;;5056602;28;20064;-90
2021/12/17 03:57:30;;;;;;;1.52;0.70;;;7.60;99.90;;;;;;5052783;28;20045;-90
2021/12/17 03:59:56;;;;;;;1.77;0.63;;;7.60;99.90;;;;;;5053025;28;20380;-91
2021/12/17 04:02:22;;;;;;;1.95;0.70;;;7.60;99.90;;;;;;5052389;28;20065;-91
2021/12/17 04:04:47;;;;;;;2.25;0.80;;;7.60;99.90;;;;;;5041613;28;20072;-92
2021/12/17 04:07:13;;;;;;;1.10;0.60;;;7.60;99.90;;;;;;5053466;28;20056;-92
2021/12/17 04:09:39;;;;;;;1.50;0.70;;;7.60;99.90;;;;;;5046522;28;20048;-89
2021/12/17 04:12:10;;;;;;;1.10;0.90;;;7.90;99.90;;;;;;5056570;28;20055;-91
2021/12/17 04:14:44;;;;;;;1.65;0.90;;;7.60;99.90;;;;;;5053131;28;20051;-92
2021/12/17 04:17:11;;;;;;;1.10;0.60;;;7.70;99.90;;;;;;5052032;28;20052;-83
2021/12/17 04:19:36;;;;;;;0.77;0.60;;;7.60;99.90;;;;;;5063831;28;20049;-92
2021/12/17 04:22:03;;;;;;;0.77;0.50;;;8.00;99.90;;;;;;5054088;28;20508;-88
2021/12/17 04:24:29;;;;;;;0.85;0.45;;;7.60;99.90;;;;;;5062018;28;20048;-92
2021/12/17 04:26:55;;;;;;;0.73;0.50;;;7.60;99.90;;;;;;5042096;28;20044;-91
2021/12/17 04:29:22;;;;;;;1.23;0.77;;;7.60;99.90;;;;;;5052041;28;20172;-91
2021/12/17 04:31:53;;;;;;;1.00;0.60;;;7.60;99.90;;;;;;5042374;28;20435;-91
2021/12/17 04:34:19;;;;;;;1.30;0.77;;;7.60;99.90;;;;;;5042954;28;20057;-87
2021/12/17 04:36:48;;;;;;;1.83;0.73;;;7.70;99.90;;;;;;5045782;28;20051;-89
2021/12/17 04:39:16;;;;;;;1.67;0.80;;;7.70;99.90;;;;;;5071312;28;20049;-91
2021/12/17 04:42:02;;;;;;;1.80;0.80;;;8.00;99.90;;;;;;5052869;28;20045;-90
2021/12/17 04:44:32;;;;;;;2.45;1.00;;;7.60;99.90;;;;;;5043885;28;20060;-90
2021/12/17 04:57:58;;;;;;;3.72;1.52;;;8.20;99.90;;;;;;5029066;28;20053;-90
2021/12/17 05:00:27;;;;;;;2.80;1.40;;;7.60;99.90;;;;;;5055021;28;20049;-91
2021/12/17 05:02:55;;;;;;;3.22;1.30;;;7.60;99.90;;;;;;5029019;28;20061;-90
2021/12/17 05:05:29;;;;;;;2.63;1.35;;;8.00;99.90;;;;;;5023698;28;20053;-91
2021/12/17 05:08:01;;;;;;;2.85;1.48;;;7.60;99.90;;;;;;5054160;28;20041;-90
2021/12/17 05:10:47;;;;;;;3.00;1.23;;;7.60;99.90;;;;;;5036742;28;20067;-91
2021/12/17 05:21:26;;;;;;;3.20;1.23;;;7.60;99.90;;;;;;4973973;28;20129;-91
2021/12/17 05:23:52;;;;;;;2.72;1.02;;;7.60;99.90;;;;;;4956503;28;20166;-89
2021/12/17 05:26:19;;;;;;;6.45;2.67;;;8.00;99.90;;;;;;4967638;28;20114;-92
2021/12/17 05:28:46;;;;;;;8.50;2.95;;;7.60;99.90;;;;;;4973241;28;20051;-93
2021/12/17 05:31:14;;;;;;;8.23;2.45;;;7.60;99.90;;;;;;4950557;28;20051;-91
2021/12/17 05:33:40;;;;;;;6.18;2.95;;;7.60;99.90;;;;;;4959209;28;20051;-92
2021/12/17 05:36:06;;;;;;;5.95;2.22;;;7.60;99.90;;;;;;4966011;28;20054;-92
2021/12/17 05:38:32;;;;;;;5.45;1.83;;;7.60;99.90;;;;;;4958147;28;20066;-90
2021/12/17 05:40:58;;;;;;;5.88;1.88;;;7.60;99.90;;;;;;4965544;28;20055;-89
2021/12/17 05:43:24;;;;;;;4.32;1.92;;;7.60;99.90;;;;;;4957359;28;20059;-91
2021/12/17 05:48:23;;;;;;;4.57;2.05;;;7.80;99.90;;;;;;4993118;28;20069;-91
2021/12/17 05:50:55;;;;;;;5.88;2.00;;;7.60;99.90;;;;;;5042429;28;20064;-86
2021/12/17 05:53:21;;;;;;;5.38;2.22;;;7.90;99.90;;;;;;5034928;28;20072;-91
2021/12/17 05:55:47;;;;;;;4.57;1.80;;;7.50;99.90;;;;;;5018329;28;20057;-92
2021/12/17 05:58:13;;;;;;;6.10;2.15;;;7.50;99.90;;;;;;5045111;28;20049;-91
2021/12/17 06:00:41;;;;;;;6.68;2.17;;;8.00;99.90;;;;;;5044171;28;20056;-91
2021/12/17 06:03:07;;;;;;;4.35;1.83;;;7.60;99.90;;;;;;5027520;28;20069;-91
2021/12/17 06:05:33;;;;;;;6.18;2.00;;;8.00;99.90;;;;;;5034577;28;20135;-90
2021/12/17 06:07:59;;;;;;;5.47;2.28;;;7.50;99.90;;;;;;5045541;28;20132;-90
2021/12/17 06:10:25;;;;;;;5.50;2.08;;;7.50;99.90;;;;;;5045232;28;20138;-87
2021/12/17 06:12:51;;;;;;;6.82;2.00;;;7.50;99.90;;;;;;5031493;28;20052;-91
2021/12/17 06:15:19;;;;;;;4.35;1.85;;;7.50;99.90;;;;;;5045709;28;20061;-90
2021/12/17 06:17:45;;;;;;;7.10;2.90;;;7.50;99.90;;;;;;5034019;28;20072;-91
2021/12/17 06:20:13;;;;;;;5.63;2.00;;;7.50;99.90;;;;;;5027584;28;20046;-87
2021/12/17 06:22:39;;;;;;;5.78;2.25;;;7.40;99.90;;;;;;5045495;28;20061;-91
2021/12/17 06:25:06;;;;;;;6.72;2.42;;;7.40;99.90;;;;;;5045343;28;20094;-91
2021/12/17 06:27:32;;;;;;;7.63;2.70;;;7.40;99.90;;;;;;5024913;28;20065;-88
2021/12/17 06:29:59;;;;;;;8.45;3.05;;;7.40;99.90;;;;;;5041967;28;20412;-90
2021/12/17 06:32:25;;;;;;;7.80;2.60;;;7.30;99.90;;;;;;5042057;28;20391;-90
2021/12/17 06:34:51;;;;;;;7.97;2.65;;;7.30;99.90;;;;;;5028856;28;20099;-91
2021/12/17 06:37:17;;;;;;;5.13;2.05;;;7.30;99.90;;;;;;5043498;28;20120;-91
2021/12/17 06:39:45;;;;;;;5.75;2.22;;;7.30;99.90;;;;;;5044931;28;20394;-91
2021/12/17 06:42:11;;;;;;;5.47;2.05;;;7.30;99.90;;;;;;5043830;28;20095;-91
2021/12/17 06:44:39;;;;;;;9.07;2.78;;;7.30;99.90;;;;;;5053217;28;20060;-91
2021/12/17 06:47:10;;;;;;;4.78;2.05;;;7.30;99.90;;;;;;5053948;28;20048;-88
2021/12/17 06:55:32;;;;;;;6.28;2.58;;;7.30;99.90;;;;;;5039252;28;20049;-91
2021/12/17 07:28:03;;;;;;;5.90;2.35;;;7.30;99.90;;;;;;4925750;29;20582;-87
2021/12/17 07:35:45;;;;;;;6.40;2.25;;;7.60;99.90;;;;;;5005719;28;20414;-90
2021/12/17 07:40:56;;;;;;;4.85;2.30;;;7.40;99.90;;;;;;5003473;28;20375;-90
2021/12/17 07:43:27;;;;;;;7.88;2.50;;;7.40;99.90;;;;;;5036846;28;20477;-90
2021/12/17 07:45:55;;;;;;;6.25;2.60;;;7.40;99.90;;;;;;5064501;28;20049;-87
2021/12/17 07:48:21;;;;;;;8.65;3.15;;;7.60;99.90;;;;;;5064882;28;20057;-88
2021/12/17 07:50:47;;;;;;;6.95;3.28;;;7.90;99.90;;;;;;5068085;28;20044;-82
2021/12/17 07:53:13;;;;;;;10.85;4.43;;;7.90;99.90;;;;;;5060685;28;20052;-86
2021/12/17 07:55:38;;;;;;;9.20;3.70;;;7.50;99.90;;;;;;5061593;28;20420;-87
2021/12/17 07:58:04;;;;;;;15.95;5.10;;;8.10;99.90;;;;;;5063684;28;20052;-88
2021/12/17 08:00:30;;;;;;;13.10;4.82;;;7.60;99.90;;;;;;5028730;28;20056;-87
2021/12/17 08:02:56;;;;;;;12.25;4.35;;;7.60;99.90;;;;;;5056995;28;20580;-86
2021/12/17 08:05:21;;;;;;;13.80;5.75;;;7.70;99.90;;;;;;5060859;28;20083;-87
2021/12/17 08:07:47;;;;;;;11.30;5.15;;;7.80;99.90;;;;;;5052929;28;20140;-88
2021/12/17 08:10:13;;;;;;;10.75;4.75;;;7.90;99.90;;;;;;5045243;28;20051;-88
2021/12/17 08:12:39;;;;;;;7.53;3.75;;;7.90;99.90;;;;;;5043861;28;20061;-88
2021/12/17 08:15:08;;;;;;;11.05;4.13;;;7.80;99.90;;;;;;5045585;28;20097;-88
2021/12/17 08:28:28;;;;;;;12.52;4.35;;;7.90;99.90;;;;;;4994357;28;20053;-90
2021/12/17 08:30:54;;;;;;;10.60;3.75;;;8.20;99.90;;;;;;4969796;28;20146;-89
2021/12/17 08:33:21;;;;;;;9.55;4.68;;;7.80;99.90;;;;;;4986484;28;20550;-88
2021/12/17 08:35:47;;;;;;;13.35;4.72;;;8.00;99.90;;;;;;4977643;28;20054;-88
2021/12/17 08:38:13;;;;;;;10.10;3.97;;;7.90;99.90;;;;;;4991311;28;20066;-83
2021/12/17 08:40:39;;;;;;;11.77;4.55;;;8.30;99.90;;;;;;4972424;28;20069;-83
2021/12/17 08:43:05;;;;;;;8.25;3.75;;;8.20;99.90;;;;;;4969356;28;20050;-85
2021/12/17 08:45:30;;;;;;;8.27;3.30;;;8.20;99.90;;;;;;4993374;28;20054;-86
2021/12/17 08:47:57;;;;;;;6.82;3.05;;;7.90;99.90;;;;;;4993462;28;20487;-87
2021/12/17 08:50:23;;;;;;;11.23;4.47;;;8.20;99.90;;;;;;4993779;28;20047;-86
2021/12/17 08:52:49;;;;;;;10.57;4.80;;;7.90;99.90;;;;;;4992710;28;20200;-81
2021/12/17 08:55:15;;;;;;;11.45;4.15;;;8.00;99.90;;;;;;4993752;28;20129;-83
2021/12/17 08:57:41;;;;;;;7.20;3.78;;;8.50;99.90;;;;;;5042841;28;20054;-84
2021/12/17 09:00:11;;;;;;;10.15;3.78;;;8.20;99.90;;;;;;5046008;28;20064;-80
2021/12/17 09:02:38;;;;;;;8.68;3.40;;;8.00;99.90;;;;;;5047794;28;20057;-83
2021/12/17 09:05:05;;;;;;;9.35;4.65;;;8.20;99.90;;;;;;5044397;28;20050;-85
2021/12/17 09:07:31;;;;;;;9.55;3.33;;;8.10;99.90;;;;;;5043556;28;20416;-81
2021/12/17 09:09:57;;;;;;;10.73;4.57;;;8.10;99.90;;;;;;5039157;28;20125;-82
2021/12/17 09:12:23;;;;;;;10.23;4.00;;;8.20;99.90;;;;;;5025270;28;20054;-85
2021/12/17 09:14:48;;;;;;;11.23;4.18;;;8.20;99.90;;;;;;5043606;28;20107;-86
2021/12/17 09:17:14;;;;;;;14.15;5.05;;;8.60;99.90;;;;;;5018155;28;20115;-85
2021/12/17 09:19:40;;;;;;;14.02;4.95;;;8.70;99.90;;;;;;5043353;28;20084;-86
2021/12/17 09:22:06;;;;;;;9.27;3.88;;;8.40;99.90;;;;;;5026273;28;20100;-87
2021/12/17 09:24:32;;;;;;;6.13;3.10;;;8.50;99.90;;;;;;5026795;28;20128;-88
2021/12/17 09:26:57;;;;;;;7.72;3.15;;;9.00;99.90;;;;;;5043533;28;20458;-86
2021/12/17 09:29:24;;;;;;;8.63;2.92;;;8.40;99.90;;;;;;5025797;28;20037;-87
2021/12/17 09:31:50;;;;;;;7.05;3.05;;;8.80;99.90;;;;;;5043270;28;20445;-86
2021/12/17 09:34:15;;;;;;;7.53;2.58;;;9.00;99.90;;;;;;5044830;28;20100;-87
2021/12/17 09:36:41;;;;;;;4.90;2.35;;;8.70;99.90;;;;;;5046269;28;20409;-87
2021/12/17 09:39:07;;;;;;;5.63;2.17;;;8.50;99.90;;;;;;5043579;28;20110;-85
2021/12/17 09:41:32;;;;;;;4.15;1.80;;;8.90;99.90;;;;;;5043163;28;20037;-84
2021/12/17 09:43:58;;;;;;;4.05;1.50;;;9.00;99.90;;;;;;5028258;28;20115;-86
2021/12/17 09:46:24;;;;;;;5.97;2.38;;;9.00;99.90;;;;;;5045391;28;20052;-87
2021/12/17 09:48:50;;;;;;;5.18;2.08;;;9.00;99.90;;;;;;5047872;28;20046;-87
2021/12/17 09:51:18;;;;;;;4.35;2.17;;;8.60;99.90;;;;;;5033315;28;20069;-86
2021/12/17 09:53:45;;;;;;;4.20;2.05;;;8.50;99.90;;;;;;5035112;28;20055;-87
2021/12/17 09:56:11;;;;;;;5.50;1.77;;;8.60;99.90;;;;;;5033534;28;20045;-87
2021/12/17 09:58:37;;;;;;;5.68;1.70;;;8.90;99.90;;;;;;5035796;28;20056;-86
2021/12/17 10:01:03;;;;;;;2.22;1.20;;;9.10;99.90;;;;;;5035351;28;20132;-87
2021/12/17 10:03:29;;;;;;;4.03;1.90;;;8.60;99.90;;;;;;5053703;28;20049;-86
2021/12/17 10:05:55;;;;;;;3.30;1.65;;;8.70;99.90;;;;;;5038424;28;20131;-84
2021/12/17 10:08:23;;;;;;;3.65;1.77;;;8.70;99.90;;;;;;5054567;28;20049;-82
2021/12/17 10:10:48;;;;;;;3.28;1.67;;;8.90;99.90;;;;;;5028565;28;20049;-86
2021/12/17 10:13:20;;;;;;;3.85;2.25;;;8.70;99.90;;;;;;5028132;28;20053;-83
2021/12/17 10:15:49;;;;;;;6.70;4.03;;;8.70;99.90;;;;;;5053442;28;20041;-83
2021/12/17 10:18:16;;;;;;;4.95;3.42;;;9.00;99.90;;;;;;5052810;28;20122;-83
2021/12/17 10:21:03;;;;;;;5.40;3.13;;;8.90;99.90;;;;;;5053381;28;20045;-84
2021/12/17 10:23:30;;;;;;;7.63;4.40;;;9.40;99.90;;;;;;5034395;28;20123;-84
2021/12/17 10:25:56;;;;;;;5.80;3.22;;;8.90;99.90;;;;;;5030646;28;20109;-82
2021/12/17 10:28:22;;;;;;;5.45;3.33;;;8.80;99.90;;;;;;5051241;28;20638;-79
2021/12/17 10:30:50;;;;;;;6.20;3.88;;;8.90;99.90;;;;;;5033968;28;20054;-82
2021/12/17 10:33:23;;;;;;;3.53;2.40;;;9.00;99.90;;;;;;5034935;28;20124;-80
2021/12/17 10:35:51;;;;;;;2.88;1.92;;;9.00;99.90;;;;;;5034084;28;20052;-83
2021/12/17 10:38:22;;;;;;;4.45;2.47;;;9.00;99.90;;;;;;5034111;28;20049;-87
2021/12/17 10:41:00;;;;;;;7.28;4.03;;;9.30;99.90;;;;;;5038732;28;20053;-85
2021/12/17 10:43:32;;;;;;;6.40;3.10;;;9.00;99.90;;;;;;5035789;28;20114;-78
2021/12/17 10:48:55;;;;;;;5.15;2.75;;;9.50;99.90;;;;;;5046169;28;20390;-81
2021/12/17 10:54:12;;;;;;;4.35;2.28;;;9.10;99.90;;;;;;5037750;28;20052;-89
2021/12/17 10:56:45;;;;;;;3.50;2.25;;;9.20;99.90;;;;;;5052500;28;20053;-86
2021/12/17 10:59:14;;;;;;;2.75;1.50;;;9.10;99.90;;;;;;5052209;28;20080;-88
2021/12/17 11:01:49;;;;;;;3.55;1.90;;;9.20;99.90;;;;;;5051706;28;20045;-88
2021/12/17 11:04:29;;;;;;;3.35;2.25;;;9.10;99.90;;;;;;5052327;28;20056;-85
2021/12/17 11:06:56;;;;;;;4.05;1.98;;;9.20;99.90;;;;;;5052654;28;20052;-90
2021/12/17 11:09:35;;;;;;;3.60;1.73;;;9.30;99.90;;;;;;5051097;28;20052;-86
2021/12/17 11:12:34;;;;;;;2.85;1.20;;;9.20;99.90;;;;;;5043340;28;20107;-85
2021/12/17 11:15:24;;;;;;;1.90;1.27;;;9.20;99.90;;;;;;5031751;28;20118;-78
2021/12/17 11:18:00;;;;;;;2.13;1.15;;;9.20;99.90;;;;;;5043796;28;20098;-77
2021/12/17 11:20:32;;;;;;;1.55;1.05;;;9.20;99.90;;;;;;5045129;28;20056;-93
2021/12/17 11:23:04;;;;;;;2.05;1.15;;;9.20;99.90;;;;;;5035411;28;20137;-80
2021/12/17 11:25:30;;;;;;;2.05;1.10;;;9.50;99.90;;;;;;5049665;28;20057;-78
2021/12/17 11:27:56;;;;;;;2.60;0.80;;;9.30;99.90;;;;;;5044343;28;20049;-78
2021/12/17 11:30:25;;;;;;;1.83;0.90;;;9.40;99.90;;;;;;5049972;28;20060;-78
2021/12/17 11:32:53;;;;;;;1.77;0.90;;;9.20;99.90;;;;;;5042587;28;20687;-78
2021/12/17 11:35:24;;;;;;;1.05;0.63;;;9.20;99.90;;;;;;5033504;28;20135;-78
2021/12/17 11:37:52;;;;;;;1.48;0.80;;;9.40;99.90;;;;;;5049490;28;20499;-76
2021/12/17 11:40:48;;;;;;;1.58;0.80;;;9.20;99.90;;;;;;5043435;28;20064;-77
2021/12/17 11:43:52;;;;;;;2.70;0.80;;;9.20;99.90;;;;;;5036803;28;20510;-78
2021/12/17 11:46:28;;;;;;;1.83;0.90;;;9.20;99.90;;;;;;5043091;28;20390;-77
2021/12/17 11:48:57;;;;;;;1.58;0.80;;;9.20;99.90;;;;;;5050857;28;20055;-77
2021/12/17 11:51:26;;;;;;;2.42;0.90;;;9.30;99.90;;;;;;5043876;28;20053;-78
2021/12/17 11:53:59;;;;;;;1.45;0.90;;;9.20;99.90;;;;;;5050891;28;20064;-77
2021/12/17 11:56:40;;;;;;;1.70;0.70;;;9.20;99.90;;;;;;5045131;28;20494;-87
2021/12/17 11:59:32;;;;;;;1.67;0.80;;;9.20;99.90;;;;;;5035820;28;20499;-83
2021/12/17 12:02:23;;;;;;;2.60;1.20;;;9.20;99.90;;;;;;4944390;29;20102;-89
2021/12/17 12:05:07;;;;;;;1.40;0.80;;;9.20;99.90;;;;;;4927778;29;20113;-85
2021/12/17 12:07:36;;;;;;;1.42;0.90;;;9.20;99.90;;;;;;4944039;29;20055;-84
2021/12/17 12:10:12;;;;;;;2.22;1.13;;;9.20;99.90;;;;;;4931825;29;20504;-84
2021/12/17 12:12:38;;;;;;;1.20;0.90;;;9.20;99.90;;;;;;4924908;29;20220;-86
2021/12/17 12:15:34;;;;;;;1.30;0.80;;;9.20;99.90;;;;;;4933951;29;20055;-84
2021/12/17 12:18:11;;;;;;;3.55;1.38;;;9.20;99.90;;;;;;4875781;29;20060;-86
2021/12/17 12:20:46;;;;;;;5.38;1.10;;;9.70;99.90;;;;;;4875738;29;20183;-86
2021/12/17 12:23:29;;;;;;;3.42;1.63;;;9.30;99.90;;;;;;4865472;29;20057;-86
2021/12/17 12:26:04;;;;;;;2.97;1.70;;;9.80;99.90;;;;;;4873084;29;20071;-87
2021/12/17 12:28:44;;;;;;;3.72;1.88;;;9.60;99.90;;;;;;4875710;29;20163;-85
2021/12/17 12:31:14;;;;;;;2.65;1.50;;;9.40;99.90;;;;;;4859508;29;20055;-86
2021/12/17 12:34:04;;;;;;;3.17;1.80;;;9.40;99.90;;;;;;4860172;29;20506;-83
2021/12/17 12:36:48;;;;;;;4.10;1.60;;;9.50;99.90;;;;;;4875562;29;20057;-85
2021/12/17 12:39:17;;;;;;;3.42;1.80;;;9.50;99.90;;;;;;4907232;29;20059;-85
2021/12/17 12:41:48;;;;;;;4.47;1.90;;;9.60;99.90;;;;;;4943397;29;20055;-80
2021/12/17 12:44:14;;;;;;;3.00;1.60;;;9.50;99.90;;;;;;4931669;28;20412;-85
2021/12/17 12:46:57;;;;;;;3.15;1.60;;;9.50;99.90;;;;;;4938972;28;20059;-79
2021/12/17 12:50:02;;;;;;;2.13;1.52;;;9.50;99.90;;;;;;4955592;28;20066;-81
2021/12/17 12:52:33;;;;;;;2.67;1.20;;;9.50;99.90;;;;;;4936438;29;20552;-79
2021/12/17 12:55:17;;;;;;;2.90;1.20;;;9.50;99.90;;;;;;5015759;28;20055;-93
2021/12/17 12:57:52;;;;;;;2.03;1.17;;;9.70;99.90;;;;;;5037905;28;20517;-92
2021/12/17 13:00:29;;;;;;;3.30;1.80;;;9.50;99.90;;;;;;5035874;28;20060;-95
2021/12/17 13:02:59;;;;;;;2.55;1.42;;;9.50;99.90;;;;;;5040612;28;20342;-94
2021/12/17 13:05:26;;;;;;;2.67;1.08;;;9.50;99.90;;;;;;5038047;28;20111;-90
2021/12/17 13:08:01;;;;;;;2.50;1.40;;;9.50;99.90;;;;;;5041629;28;20746;-84
2021/12/17 13:10:29;;;;;;;2.80;1.67;;;9.50;99.90;;;;;;5037359;28;20580;-88
2021/12/17 13:13:11;;;;;;;2.22;1.50;;;9.60;99.90;;;;;;5029003;28;20091;-86
2021/12/17 13:15:44;;;;;;;1.77;1.27;;;9.50;99.90;;;;;;5046031;28;20045;-88
2021/12/17 13:23:21;;;;;;;3.03;1.40;;;9.50;99.90;;;;;;5046761;28;20057;-83
2021/12/17 13:26:03;;;;;;;4.03;1.50;;;9.50;99.90;;;;;;5045256;28;20805;-83
2021/12/17 13:28:53;;;;;;;3.67;1.80;;;9.50;99.90;;;;;;5048604;28;20045;-81
2021/12/17 13:31:48;;;;;;;2.08;1.10;;;9.50;99.90;;;;;;5028700;28;20429;-88
2021/12/17 13:34:23;;;;;;;2.45;1.70;;;9.50;99.90;;;;;;5030295;28;20049;-82
2021/12/17 13:37:18;;;;;;;2.15;1.45;;;9.50;99.90;;;;;;5046816;28;20053;-82
2021/12/17 13:39:59;;;;;;;2.53;1.13;;;9.50;99.90;;;;;;4954796;29;20055;-88
2021/12/17 13:42:31;;;;;;;1.88;0.90;;;9.40;99.90;;;;;;4955040;29;20182;-86
2021/12/17 13:45:05;;;;;;;2.08;1.10;;;9.40;99.90;;;;;;4962752;28;20191;-80
2021/12/17 13:47:48;;;;;;;2.13;1.20;;;9.40;99.90;;;;;;4977611;28;20107;-88
2021/12/17 13:50:22;;;;;;;2.05;1.27;;;9.40;99.90;;;;;;5013168;28;20408;-88
2021/12/17 13:53:01;;;;;;;3.85;3.13;;;9.50;99.90;;;;;;5012571;28;20064;-87
2021/12/17 13:55:30;;;;;;;2.75;1.42;;;9.50;99.90;;;;;;5012913;28;20049;-84
2021/12/17 13:57:57;;;;;;;2.35;1.20;;;9.50;99.90;;;;;;4994846;28;20054;-89
2021/12/17 14:00:26;;;;;;;2.42;1.27;;;9.40;99.90;;;;;;5012883;28;20092;-85
2021/12/17 14:02:55;;;;;;;1.80;1.02;;;9.40;99.90;;;;;;4999511;28;20177;-86
2021/12/17 14:05:49;;;;;;;4.10;2.00;;;9.40;99.90;;;;;;4993013;28;20054;-89
2021/12/17 14:08:19;;;;;;;3.42;2.33;;;9.50;99.90;;;;;;4981097;28;20058;-87
2021/12/17 14:10:45;;;;;;;5.10;2.17;;;9.50;99.90;;;;;;5012892;28;20100;-89
2021/12/17 14:13:23;;;;;;;5.85;2.92;;;9.40;99.90;;;;;;5014351;28;20052;-88
2021/12/17 14:15:51;;;;;;;3.75;2.42;;;9.40;99.90;;;;;;5025639;28;20053;-90
2021/12/17 14:18:22;;;;;;;5.25;2.78;;;9.90;99.90;;;;;;5059679;28;20056;-87
2021/12/17 14:20:51;;;;;;;3.38;1.80;;;9.50;99.90;;;;;;5016891;28;20107;-89
2021/12/17 14:23:22;;;;;;;4.40;2.65;;;9.50;99.90;;;;;;5027659;28;20072;-89
2021/12/17 14:25:49;;;;;;;4.50;2.22;;;9.50;99.90;;;;;;5041650;28;20068;-87
2021/12/17 14:28:21;;;;;;;3.80;2.35;;;9.40;99.90;;;;;;5040385;28;20150;-89
2021/12/17 14:31:01;;;;;;;4.47;1.63;;;9.40;99.90;;;;;;5037164;28;20052;-90
2021/12/17 14:33:31;;;;;;;2.00;1.08;;;9.50;99.90;;;;;;5020048;28;20139;-90
2021/12/17 14:35:58;;;;;;;2.97;1.83;;;9.30;99.90;;;;;;5034138;28;20049;-87
2021/12/17 14:38:38;;;;;;;3.35;1.80;;;9.40;99.90;;;;;;5033953;28;20096;-91
2021/12/17 14:41:06;;;;;;;2.30;1.40;;;9.30;99.90;;;;;;5028462;28;20048;-87
2021/12/17 14:43:52;;;;;;;3.22;1.50;;;9.30;99.90;;;;;;5035943;28;20114;-88
2021/12/17 14:46:29;;;;;;;3.83;2.65;;;9.30;99.90;;;;;;5035763;28;20088;-87
2021/12/17 15:03:40;;;;;;;3.83;2.35;;;9.30;99.90;;;;;;5015864;28;20046;-87
2021/12/17 15:06:07;;;;;;;5.13;2.03;;;9.30;99.90;;;;;;5038023;28;20053;-88
2021/12/17 15:08:33;;;;;;;4.63;2.90;;;9.30;99.90;;;;;;5041411;28;20049;-82
2021/12/17 15:11:03;;;;;;;4.68;2.70;;;9.30;99.90;;;;;;5052762;28;20040;-85
2021/12/17 15:13:29;;;;;;;7.50;3.08;;;9.80;99.90;;;;;;5042797;28;20053;-89
2021/12/17 15:15:57;;;;;;;4.10;2.25;;;9.40;99.90;;;;;;5030288;28;20104;-86
2021/12/17 15:18:23;;;;;;;3.60;1.85;;;9.30;99.90;;;;;;5045038;28;20106;-87
2021/12/17 15:20:56;;;;;;;4.15;1.80;;;9.50;99.90;;;;;;5052420;28;20053;-82
2021/12/17 15:23:22;;;;;;;3.85;1.55;;;9.20;99.90;;;;;;5051967;28;20512;-86
2021/12/17 15:25:50;;;;;;;4.00;2.17;;;9.10;99.90;;;;;;5033173;28;20057;-85
2021/12/17 15:28:20;;;;;;;6.38;2.72;;;9.10;99.90;;;;;;5040964;28;20504;-84
2021/12/17 15:30:48;;;;;;;5.28;2.58;;;9.10;99.90;;;;;;5048197;28;20111;-86
2021/12/17 15:33:15;;;;;;;4.50;2.40;;;9.00;99.90;;;;;;5015307;28;20057;-86
2021/12/17 15:35:42;;;;;;;3.72;2.05;;;9.00;99.90;;;;;;5047961;28;20402;-81
2021/12/17 15:38:09;;;;;;;6.45;2.65;;;9.00;99.90;;;;;;5026341;28;20055;-88
2021/12/17 15:40:37;;;;;;;7.47;2.60;;;9.00;99.90;;;;;;5049090;28;20045;-80
2021/12/17 15:43:03;;;;;;;4.35;2.05;;;9.00;99.90;;;;;;5044859;28;20107;-86
2021/12/17 15:45:30;;;;;;;5.13;2.17;;;9.00;99.90;;;;;;5044910;28;20045;-85
2021/12/17 15:47:56;;;;;;;5.18;2.50;;;8.90;99.90;;;;;;5033049;28;20049;-86
2021/12/17 15:50:22;;;;;;;3.80;2.25;;;8.90;99.90;;;;;;5051394;28;20064;-79
2021/12/17 15:52:48;;;;;;;4.60;1.95;;;8.90;99.90;;;;;;5033132;28;20438;-88
2021/12/17 15:55:20;;;;;;;9.02;4.05;;;9.20;99.90;;;;;;5051872;28;20058;-86
2021/12/17 15:57:46;;;;;;;6.47;2.80;;;8.80;99.90;;;;;;5017957;28;20064;-86
2021/12/17 16:00:14;;;;;;;4.47;2.72;;;9.30;99.90;;;;;;5052117;28;20107;-85
2021/12/17 16:02:42;;;;;;;5.18;2.38;;;8.80;99.90;;;;;;5043934;28;20106;-88
2021/12/17 16:05:10;;;;;;;4.00;1.90;;;9.10;99.90;;;;;;5052157;28;20072;-88
2021/12/17 16:07:36;;;;;;;3.78;1.60;;;8.70;99.90;;;;;;5024891;28;20103;-87
2021/12/17 16:21:02;;;;;;;2.90;1.67;;;8.70;99.90;;;;;;4954835;28;20134;-85
2021/12/17 16:23:55;;;;;;;2.75;1.40;;;9.10;99.90;;;;;;4954636;28;20094;-81
2021/12/17 16:26:22;;;;;;;1.92;0.90;;;8.50;99.90;;;;;;4962042;28;20106;-81
2021/12/17 16:28:49;;;;;;;6.25;1.38;;;8.50;99.90;;;;;;4970072;28;20054;-82
2021/12/17 16:31:20;;;;;;;4.13;1.63;;;8.50;99.90;;;;;;4954388;28;20051;-81
2021/12/17 16:33:49;;;;;;;4.50;1.25;;;8.50;99.90;;;;;;4954647;28;20454;-80
2021/12/17 16:36:15;;;;;;;3.40;1.48;;;8.70;99.90;;;;;;4971364;28;20395;-85
2021/12/17 16:38:41;;;;;;;2.80;1.13;;;8.50;99.90;;;;;;4958799;28;20066;-81
2021/12/17 16:41:08;;;;;;;3.08;1.52;;;8.50;99.90;;;;;;4965788;28;20130;-84
2021/12/17 16:43:36;;;;;;;3.30;1.60;;;8.50;99.90;;;;;;4972368;28;20082;-82